createdAt,value
2016-12-06T00:00:05.684Z,72.05
2016-12-06T00:00:33.929Z,71.95
2016-12-06T00:01:02.167Z,72.24
2016-12-06T00:01:30.390Z,72.05
2016-12-06T00:01:58.604Z,72.05
2016-12-06T00:02:26.944Z,72.05
2016-12-06T00:02:55.128Z,72.05
2016-12-06T00:03:23.492Z,72.63
2016-12-06T00:03:51.699Z,72.43
2016-12-06T00:04:19.922Z,72.43
2016-12-06T00:04:48.139Z,72.43
2016-12-06T00:05:16.366Z,72.43
2016-12-06T00:05:44.602Z,72.43
2016-12-06T00:06:12.849Z,72.63
2016-12-06T00:06:40.942Z,73
2016-12-06T00:07:09.166Z,72.53
2016-12-06T00:07:37.393Z,72.63
2016-12-06T00:08:05.693Z,72.53
2016-12-06T00:08:33.700Z,72.43
2016-12-06T00:09:02.054Z,72.33
2016-12-06T00:09:30.373Z,72.53
2016-12-06T00:09:58.568Z,72.33
2016-12-06T00:10:26.650Z,72.33
2016-12-06T00:10:54.988Z,72.14
2016-12-06T00:11:23.332Z,72.43
2016-12-06T00:11:51.463Z,72.24
2016-12-06T00:12:19.683Z,72.14
2016-12-06T00:12:47.866Z,72.43
2016-12-06T00:13:16.149Z,72.43
2016-12-06T00:13:44.310Z,72.53
2016-12-06T00:14:49.923Z,72.43
2016-12-06T00:15:18.115Z,72.63
2016-12-06T00:15:46.218Z,72.53
2016-12-06T00:16:14.194Z,72.53
2016-12-06T00:16:42.422Z,72.63
2016-12-06T00:17:10.606Z,73.1
2016-12-06T00:17:38.567Z,72.91
2016-12-06T00:18:06.842Z,72.72
2016-12-06T00:18:34.914Z,72.91
2016-12-06T00:19:03.155Z,73
2016-12-06T00:19:31.196Z,73
2016-12-06T00:19:59.473Z,73.39
2016-12-06T00:20:27.719Z,73.68
2016-12-06T00:20:55.951Z,73.1
2016-12-06T00:21:24.118Z,73.49
2016-12-06T00:21:52.272Z,73.68
2016-12-06T00:22:20.550Z,73.49
2016-12-06T00:22:48.742Z,73.58
2016-12-06T00:23:17.032Z,73.49
2016-12-06T00:23:45.278Z,73.49
2016-12-06T00:24:13.434Z,73.55
2016-12-06T00:24:41.682Z,74.16
2016-12-06T00:25:09.986Z,74.06
2016-12-06T00:25:38.188Z,74.16
2016-12-06T00:26:06.361Z,74.31
2016-12-06T00:26:34.628Z,74.41
2016-12-06T00:27:02.975Z,74.51
2016-12-06T00:27:31.202Z,74.31
2016-12-06T00:27:59.521Z,74.51
2016-12-06T00:28:27.633Z,74.31
2016-12-06T00:28:55.916Z,74.41
2016-12-06T00:29:24.127Z,74.89
2016-12-06T00:29:52.288Z,74.69
2016-12-06T00:30:20.624Z,74.6
2016-12-06T00:30:48.903Z,74.6
2016-12-06T00:31:17.232Z,74.12
2016-12-06T00:31:45.450Z,74.51
2016-12-06T00:32:13.899Z,74.89
2016-12-06T00:32:42.000Z,75.27
2016-12-06T00:33:10.147Z,75.27
2016-12-06T00:33:38.480Z,75.18
2016-12-06T00:34:06.633Z,74.98
2016-12-06T00:34:34.935Z,74.98
2016-12-06T00:35:03.102Z,75.27
2016-12-06T00:35:31.196Z,75.37
2016-12-06T00:35:59.412Z,75.37
2016-12-06T00:36:27.785Z,75.27
2016-12-06T00:36:55.920Z,74.69
2016-12-06T00:37:24.043Z,75.37
2016-12-06T00:37:52.224Z,75.08
2016-12-06T00:38:20.462Z,75.08
2016-12-06T00:38:48.780Z,75.08
2016-12-06T00:39:17.046Z,75.08
2016-12-06T00:39:45.246Z,74.79
2016-12-06T00:40:13.539Z,74.98
2016-12-06T00:40:41.841Z,75.08
2016-12-06T00:41:10.155Z,75.46
2016-12-06T00:41:38.269Z,75.46
2016-12-06T00:42:55.141Z,75.56
2016-12-06T00:43:23.223Z,75.75
2016-12-06T00:43:51.343Z,75.65
2016-12-06T00:44:19.569Z,75.85
2016-12-06T00:44:47.922Z,75.56
2016-12-06T00:45:16.056Z,75.56
2016-12-06T00:45:44.217Z,75.65
2016-12-06T00:46:12.426Z,75.75
2016-12-06T00:46:40.455Z,75.75
2016-12-06T00:47:08.663Z,75.37
2016-12-06T00:47:36.929Z,75.75
2016-12-06T00:48:05.200Z,75.85
2016-12-06T00:48:33.424Z,75.56
2016-12-06T00:49:01.641Z,75.37
2016-12-06T00:49:29.839Z,75.27
2016-12-06T00:49:58.188Z,74.98
2016-12-06T00:50:26.446Z,75.18
2016-12-06T00:50:54.741Z,75.27
2016-12-06T00:51:22.926Z,75.27
2016-12-06T00:51:51.128Z,75.46
2016-12-06T00:52:19.335Z,75.65
2016-12-06T00:52:47.544Z,75.46
2016-12-06T00:53:15.824Z,75.46
2016-12-06T00:53:44.106Z,74.69
2016-12-06T00:54:12.181Z,75.37
2016-12-06T00:54:40.512Z,75.37
2016-12-06T00:55:08.819Z,75.65
2016-12-06T00:55:37.050Z,75.46
2016-12-06T00:56:05.172Z,75.27
2016-12-06T00:56:33.383Z,75.27
2016-12-06T00:57:01.612Z,75.37
2016-12-06T00:57:29.775Z,75.37
2016-12-06T00:57:58.032Z,75.37
2016-12-06T00:58:26.242Z,75.18
2016-12-06T00:58:54.501Z,75.08
2016-12-06T00:59:22.673Z,74.98
2016-12-06T00:59:50.859Z,74.98
2016-12-06T01:00:19.165Z,75.65
2016-12-06T01:00:47.478Z,75.46
2016-12-06T01:01:15.675Z,75.65
2016-12-06T01:01:43.893Z,75.27
2016-12-06T01:02:12.202Z,76.04
2016-12-06T01:02:40.373Z,76.42
2016-12-06T01:03:08.674Z,76.14
2016-12-06T01:03:37.018Z,75.95
2016-12-06T01:04:05.224Z,76.32
2016-12-06T01:04:33.317Z,76.14
2016-12-06T01:05:01.806Z,76.42
2016-12-06T01:05:30.055Z,76.14
2016-12-06T01:05:58.267Z,75.95
2016-12-06T01:07:09.409Z,76.29
2016-12-06T01:07:37.606Z,76.32
2016-12-06T01:08:05.753Z,76.32
2016-12-06T01:08:33.945Z,76.32
2016-12-06T01:09:02.085Z,76.29
2016-12-06T01:09:30.404Z,76.96
2016-12-06T01:09:58.732Z,76.96
2016-12-06T01:10:26.828Z,77.06
2016-12-06T01:10:55.197Z,77.34
2016-12-06T01:11:23.450Z,76.96
2016-12-06T01:11:51.662Z,77
2016-12-06T01:12:19.854Z,77.34
2016-12-06T01:12:48.123Z,77.58
2016-12-06T01:13:16.156Z,77.38
2016-12-06T01:13:44.402Z,77.58
2016-12-06T01:14:12.474Z,77.38
2016-12-06T01:14:40.764Z,77.38
2016-12-06T01:15:09.038Z,77.53
2016-12-06T01:15:37.096Z,77.38
2016-12-06T01:16:05.328Z,77.48
2016-12-06T01:16:33.381Z,77.48
2016-12-06T01:17:01.693Z,77.58
2016-12-06T01:17:29.801Z,77.38
2016-12-06T01:17:57.858Z,77.48
2016-12-06T01:18:26.067Z,77.48
2016-12-06T01:18:54.285Z,77.38
2016-12-06T01:19:22.404Z,77.48
2016-12-06T01:19:50.582Z,77.58
2016-12-06T01:20:18.964Z,77.19
2016-12-06T01:20:47.250Z,77.48
2016-12-06T01:21:15.395Z,77.48
2016-12-06T01:21:43.661Z,77.48
2016-12-06T01:22:11.869Z,77.48
2016-12-06T01:22:39.913Z,77.29
2016-12-06T01:23:08.219Z,77.38
2016-12-06T01:23:36.526Z,77.38
2016-12-06T01:24:04.613Z,77.38
2016-12-06T01:24:32.891Z,76.9
2016-12-06T01:25:01.140Z,76.9
2016-12-06T01:25:29.404Z,77
2016-12-06T01:25:57.632Z,76.81
2016-12-06T01:26:25.787Z,77.09
2016-12-06T01:26:53.977Z,77
2016-12-06T01:27:22.141Z,76.81
2016-12-06T01:27:50.437Z,76.81
2016-12-06T01:28:18.767Z,77.09
2016-12-06T01:28:46.904Z,77.09
2016-12-06T01:29:15.208Z,77
2016-12-06T01:29:43.520Z,77
2016-12-06T01:30:11.731Z,76.62
2016-12-06T01:30:40.023Z,77.09
2016-12-06T01:31:08.291Z,77.09
2016-12-06T01:31:36.505Z,77.38
2016-12-06T01:32:04.790Z,77
2016-12-06T01:32:32.915Z,77.38
2016-12-06T01:33:01.110Z,77.38
2016-12-06T01:33:29.328Z,77.48
2016-12-06T01:33:57.568Z,77.29
2016-12-06T01:34:25.684Z,77.67
2016-12-06T01:34:53.975Z,77.67
2016-12-06T01:35:22.190Z,77.86
2016-12-06T01:35:50.449Z,77.58
2016-12-06T01:36:18.605Z,77.53
2016-12-06T01:36:46.912Z,77.58
2016-12-06T01:37:15.055Z,77.38
2016-12-06T01:37:43.292Z,77.44
2016-12-06T01:38:11.655Z,77.67
2016-12-06T01:38:39.930Z,77.73
2016-12-06T01:39:07.986Z,77.53
2016-12-06T01:39:36.258Z,77.92
2016-12-06T01:40:04.592Z,77.82
2016-12-06T01:40:33.055Z,78.02
2016-12-06T01:41:01.229Z,77.82
2016-12-06T01:41:29.427Z,78.02
2016-12-06T01:41:57.563Z,78.2
2016-12-06T01:42:25.673Z,78.49
2016-12-06T01:42:53.755Z,78.3
2016-12-06T01:43:21.986Z,78.49
2016-12-06T01:43:50.254Z,78.4
2016-12-06T01:44:18.372Z,78.59
2016-12-06T01:44:46.610Z,78.69
2016-12-06T01:45:14.875Z,78.45
2016-12-06T01:45:43.208Z,78.4
2016-12-06T01:46:11.536Z,78.97
2016-12-06T01:46:39.623Z,78.88
2016-12-06T01:47:07.972Z,78.49
2016-12-06T01:47:36.331Z,78.97
2016-12-06T01:48:04.551Z,79.22
2016-12-06T01:48:32.875Z,78.64
2016-12-06T01:49:00.989Z,78.84
2016-12-06T01:49:29.128Z,79.13
2016-12-06T01:49:57.365Z,79.22
2016-12-06T01:50:25.793Z,79.03
2016-12-06T01:50:54.013Z,79.41
2016-12-06T01:51:22.229Z,79.51
2016-12-06T01:51:50.544Z,78.74
2016-12-06T01:52:18.739Z,78.93
2016-12-06T01:52:46.770Z,78.93
2016-12-06T01:53:14.995Z,78.78
2016-12-06T01:53:43.334Z,78.78
2016-12-06T01:55:00.102Z,78.78
2016-12-06T01:55:28.507Z,78.78
2016-12-06T01:55:56.726Z,78.88
2016-12-06T01:56:24.990Z,78.3
2016-12-06T01:56:53.085Z,78.49
2016-12-06T01:57:21.341Z,78.49
2016-12-06T01:57:49.466Z,78.49
2016-12-06T01:58:17.641Z,78.2
2016-12-06T01:58:45.739Z,78.02
2016-12-06T01:59:13.752Z,78.02
2016-12-06T01:59:42.032Z,77.92
2016-12-06T02:00:10.228Z,78.02
2016-12-06T02:00:38.543Z,78.02
2016-12-06T02:01:06.732Z,78.3
2016-12-06T02:01:34.930Z,77.76
2016-12-06T02:02:03.047Z,77.58
2016-12-06T02:02:31.179Z,77.67
2016-12-06T02:02:59.204Z,77.48
2016-12-06T02:03:27.416Z,77.95
2016-12-06T02:03:55.722Z,78.25
2016-12-06T02:04:23.916Z,78.05
2016-12-06T02:04:52.054Z,77.58
2016-12-06T02:05:20.378Z,77.38
2016-12-06T02:05:48.789Z,77.67
2016-12-06T02:07:00.005Z,77.67
2016-12-06T02:07:28.237Z,77.76
2016-12-06T02:07:56.446Z,77.38
2016-12-06T02:09:13.371Z,77.95
2016-12-06T02:09:41.702Z,77.92
2016-12-06T02:10:09.846Z,77.76
2016-12-06T02:10:38.031Z,78.34
2016-12-06T02:11:06.318Z,78.88
2016-12-06T02:11:34.582Z,78.69
2016-12-06T02:12:03.009Z,78.88
2016-12-06T02:12:31.238Z,78.88
2016-12-06T02:12:59.450Z,78.97
2016-12-06T02:13:27.552Z,78.59
2016-12-06T02:13:55.879Z,78.97
2016-12-06T02:14:24.018Z,78.97
2016-12-06T02:14:52.027Z,78.78
2016-12-06T02:15:20.268Z,78.88
2016-12-06T02:15:48.360Z,78.88
2016-12-06T02:16:16.474Z,79.07
2016-12-06T02:16:44.776Z,78.69
2016-12-06T02:17:13.037Z,78.69
2016-12-06T02:17:41.239Z,78.88
2016-12-06T02:18:09.468Z,79.07
2016-12-06T02:18:37.661Z,78.78
2016-12-06T02:19:05.982Z,79.16
2016-12-06T02:19:34.009Z,79.55
2016-12-06T02:20:02.311Z,79.16
2016-12-06T02:20:30.561Z,79.16
2016-12-06T02:20:59.075Z,79.26
2016-12-06T02:21:27.375Z,79.45
2016-12-06T02:21:55.633Z,79.07
2016-12-06T02:22:23.779Z,79.45
2016-12-06T02:22:51.925Z,79.64
2016-12-06T02:23:20.418Z,79.83
2016-12-06T02:23:48.667Z,79.45
2016-12-06T02:24:16.846Z,79.07
2016-12-06T02:25:11.036Z,79.26
2016-12-06T02:25:39.244Z,79.45
2016-12-06T02:26:07.556Z,79.16
2016-12-06T02:26:35.769Z,79.55
2016-12-06T02:27:04.152Z,79.32
2016-12-06T02:27:32.464Z,79.55
2016-12-06T02:28:00.708Z,79.16
2016-12-06T02:28:28.874Z,79.36
2016-12-06T02:28:57.047Z,79.45
2016-12-06T02:29:25.035Z,79.36
2016-12-06T02:29:53.188Z,79.26
2016-12-06T02:30:21.607Z,79.07
2016-12-06T02:30:49.866Z,79.36
2016-12-06T02:31:18.158Z,79.36
2016-12-06T02:31:46.481Z,79.36
2016-12-06T02:32:14.787Z,79.36
2016-12-06T02:32:42.986Z,79.26
2016-12-06T02:33:11.217Z,79.36
2016-12-06T02:33:39.421Z,79.36
2016-12-06T02:34:07.733Z,79.36
2016-12-06T02:34:35.703Z,79.64
2016-12-06T02:35:04.144Z,79.16
2016-12-06T02:35:32.297Z,79.36
2016-12-06T02:36:00.506Z,79.16
2016-12-06T02:36:28.750Z,79.55
2016-12-06T02:36:56.846Z,79.64
2016-12-06T02:37:25.053Z,79.64
2016-12-06T02:37:53.249Z,79.55
2016-12-06T02:38:21.399Z,79.55
2016-12-06T02:38:49.485Z,79.64
2016-12-06T02:39:17.732Z,79.93
2016-12-06T02:39:45.842Z,79.55
2016-12-06T02:40:14.144Z,79.45
2016-12-06T02:40:42.267Z,80.03
2016-12-06T02:41:10.445Z,79.83
2016-12-06T02:41:38.656Z,79.8
2016-12-06T02:42:07.039Z,79.7
2016-12-06T02:42:35.163Z,79.8
2016-12-06T02:43:03.378Z,80.27
2016-12-06T02:43:31.601Z,80.47
2016-12-06T02:43:59.765Z,80.47
2016-12-06T02:44:28.064Z,80.27
2016-12-06T02:44:56.294Z,80.08
2016-12-06T02:45:24.782Z,80.08
2016-12-06T02:45:53.041Z,80.47
2016-12-06T02:46:21.409Z,80.76
2016-12-06T02:46:49.325Z,80.47
2016-12-06T02:47:17.454Z,80.66
2016-12-06T02:47:45.639Z,81.13
2016-12-06T02:48:13.633Z,80.85
2016-12-06T02:48:42.068Z,80.66
2016-12-06T02:49:10.333Z,81.13
2016-12-06T02:49:38.521Z,81.43
2016-12-06T02:50:06.884Z,81.33
2016-12-06T02:50:34.996Z,81.13
2016-12-06T02:51:03.410Z,81.23
2016-12-06T02:51:31.602Z,81.33
2016-12-06T02:52:00.120Z,81.71
2016-12-06T02:52:28.314Z,81.13
2016-12-06T02:52:56.653Z,81.43
2016-12-06T02:53:24.891Z,81.52
2016-12-06T02:53:53.116Z,81.9
2016-12-06T02:54:21.330Z,81.13
2016-12-06T02:54:49.621Z,81.43
2016-12-06T02:55:17.869Z,81.33
2016-12-06T02:55:46.091Z,81.43
2016-12-06T02:56:14.274Z,81.33
2016-12-06T02:56:42.574Z,81.33
2016-12-06T02:57:10.803Z,81.33
2016-12-06T02:57:39.021Z,81.81
2016-12-06T02:58:07.085Z,81.71
2016-12-06T02:58:35.561Z,81.81
2016-12-06T02:59:03.800Z,81.52
2016-12-06T02:59:32.001Z,81.77
2016-12-06T03:00:00.209Z,81.77
2016-12-06T03:00:28.420Z,82.06
2016-12-06T03:00:56.752Z,81.67
2016-12-06T03:01:24.938Z,81.96
2016-12-06T03:01:53.640Z,82.06
2016-12-06T03:02:21.852Z,82.34
2016-12-06T03:02:50.213Z,82.24
2016-12-06T03:03:18.585Z,81.96
2016-12-06T03:03:46.598Z,82.53
2016-12-06T03:04:14.918Z,82.34
2016-12-06T03:04:43.196Z,82.73
2016-12-06T03:05:11.403Z,82.92
2016-12-06T03:05:39.621Z,82.92
2016-12-06T03:06:07.904Z,82.92
2016-12-06T03:06:36.193Z,83.2
2016-12-06T03:07:04.439Z,83.01
2016-12-06T03:07:32.658Z,82.82
2016-12-06T03:08:01.091Z,82.82
2016-12-06T03:08:29.210Z,82.73
2016-12-06T03:08:57.457Z,82.63
2016-12-06T03:09:26.032Z,83.11
2016-12-06T03:09:54.195Z,82.53
2016-12-06T03:10:22.484Z,83.11
2016-12-06T03:10:50.820Z,83.2
2016-12-06T03:11:19.003Z,83.3
2016-12-06T03:11:47.191Z,83.68
2016-12-06T03:12:15.200Z,83.3
2016-12-06T03:12:43.478Z,83.97
2016-12-06T03:13:11.641Z,83.59
2016-12-06T03:13:40.123Z,83.68
2016-12-06T03:14:45.642Z,83.3
2016-12-06T03:15:13.847Z,83.39
2016-12-06T03:15:42.055Z,83.87
2016-12-06T03:16:10.283Z,83.68
2016-12-06T03:16:38.617Z,83.68
2016-12-06T03:17:06.800Z,83.68
2016-12-06T03:17:35.048Z,83.97
2016-12-06T03:18:03.202Z,84.16
2016-12-06T03:18:31.677Z,83.78
2016-12-06T03:18:59.803Z,83.83
2016-12-06T03:19:28.065Z,84.16
2016-12-06T03:19:56.353Z,84.35
2016-12-06T03:20:24.703Z,84.5
2016-12-06T03:20:52.745Z,84.92
2016-12-06T03:21:20.906Z,84.83
2016-12-06T03:21:49.129Z,84.55
2016-12-06T03:22:17.374Z,84.64
2016-12-06T03:22:45.603Z,84.74
2016-12-06T03:23:13.766Z,84.64
2016-12-06T03:23:42.000Z,84.35
2016-12-06T03:24:10.193Z,84.41
2016-12-06T03:24:38.300Z,84.55
2016-12-06T03:25:06.588Z,84.31
2016-12-06T03:25:34.862Z,84.79
2016-12-06T03:26:03.406Z,84.69
2016-12-06T03:26:31.669Z,84.59
2016-12-06T03:26:59.876Z,85.08
2016-12-06T03:27:28.104Z,84.88
2016-12-06T03:27:56.115Z,84.88
2016-12-06T03:28:24.355Z,85.08
2016-12-06T03:29:40.992Z,84.79
2016-12-06T03:30:09.140Z,85.17
2016-12-06T03:30:37.309Z,85.65
2016-12-06T03:31:05.551Z,85.36
2016-12-06T03:31:33.936Z,85.36
2016-12-06T03:32:02.267Z,84.88
2016-12-06T03:32:30.535Z,85.17
2016-12-06T03:32:58.874Z,85.46
2016-12-06T03:33:27.372Z,85.41
2016-12-06T03:33:55.387Z,85.46
2016-12-06T03:34:23.571Z,85.36
2016-12-06T03:34:51.764Z,85.46
2016-12-06T03:35:20.055Z,85.36
2016-12-06T03:35:48.303Z,85.08
2016-12-06T03:36:16.403Z,85.08
2016-12-06T03:37:21.943Z,85.17
2016-12-06T03:37:50.116Z,85.17
2016-12-06T03:38:18.402Z,85.17
2016-12-06T03:38:46.651Z,85.27
2016-12-06T03:39:14.885Z,85.17
2016-12-06T03:39:43.076Z,85.17
2016-12-06T03:40:11.308Z,85.17
2016-12-06T03:40:39.639Z,85.17
2016-12-06T03:41:07.788Z,85.08
2016-12-06T03:41:36.287Z,85.17
2016-12-06T03:42:04.509Z,85.27
2016-12-06T03:42:32.841Z,85.46
2016-12-06T03:43:01.037Z,85.55
2016-12-06T03:43:29.151Z,85.84
2016-12-06T03:43:57.520Z,85.65
2016-12-06T03:44:25.526Z,85.94
2016-12-06T03:44:53.801Z,85.75
2016-12-06T03:45:22.097Z,85.75
2016-12-06T03:45:50.559Z,85.65
2016-12-06T03:46:18.713Z,85.55
2016-12-06T03:46:47.143Z,85.55
2016-12-06T03:47:15.163Z,85.27
2016-12-06T03:47:43.364Z,85.75
2016-12-06T03:48:11.393Z,85.65
2016-12-06T03:48:39.498Z,85.94
2016-12-06T03:49:07.713Z,85.46
2016-12-06T03:49:36.049Z,85.75
2016-12-06T03:50:04.389Z,85.84
2016-12-06T03:50:32.809Z,85.75
2016-12-06T03:51:00.827Z,85.75
2016-12-06T03:51:29.207Z,85.84
2016-12-06T03:51:57.457Z,85.94
2016-12-06T03:52:25.637Z,85.75
2016-12-06T03:52:53.656Z,86.13
2016-12-06T03:53:21.871Z,85.75
2016-12-06T03:53:50.100Z,86.22
2016-12-06T03:54:18.221Z,86.41
2016-12-06T03:54:46.564Z,86.22
2016-12-06T03:55:14.711Z,86.41
2016-12-06T03:55:42.915Z,86.61
2016-12-06T03:56:11.229Z,86.8
2016-12-06T03:56:39.491Z,86.51
2016-12-06T03:57:07.839Z,86.51
2016-12-06T03:57:36.225Z,86.8
2016-12-06T03:58:04.395Z,86.61
2016-12-06T03:58:32.704Z,86.41
2016-12-06T03:59:00.960Z,86.13
2016-12-06T03:59:29.187Z,86.61
2016-12-06T03:59:57.385Z,86.41
2016-12-06T04:00:25.704Z,86.32
2016-12-06T04:00:53.821Z,86.61
2016-12-06T04:01:21.953Z,86.51
2016-12-06T04:01:50.277Z,86.41
2016-12-06T04:02:18.507Z,86.51
2016-12-06T04:02:46.843Z,86.41
2016-12-06T04:03:15.110Z,86.41
2016-12-06T04:03:43.378Z,86.61
2016-12-06T04:04:11.663Z,86.76
2016-12-06T04:04:39.805Z,86.37
2016-12-06T04:05:08.067Z,86.94
2016-12-06T04:05:36.265Z,86.9
2016-12-06T04:06:04.616Z,86.9
2016-12-06T04:06:32.962Z,86.9
2016-12-06T04:07:38.573Z,86.9
2016-12-06T04:08:06.818Z,86.99
2016-12-06T04:08:34.937Z,86.8
2016-12-06T04:09:03.135Z,86.99
2016-12-06T04:09:31.352Z,87.08
2016-12-06T04:09:59.716Z,86.76
2016-12-06T04:10:27.834Z,87.08
2016-12-06T04:10:56.188Z,86.9
2016-12-06T04:11:24.410Z,87.27
2016-12-06T04:11:52.694Z,87.37
2016-12-06T04:12:20.933Z,87.37
2016-12-06T04:12:49.179Z,87.08
2016-12-06T04:13:17.365Z,87.18
2016-12-06T04:13:45.515Z,87.08
2016-12-06T04:14:13.625Z,87.47
2016-12-06T04:14:41.915Z,87.27
2016-12-06T04:15:10.168Z,87.85
2016-12-06T04:15:38.484Z,87.66
2016-12-06T04:16:06.767Z,87.56
2016-12-06T04:16:34.904Z,87.56
2016-12-06T04:17:03.053Z,87.76
2016-12-06T04:17:31.286Z,87.66
2016-12-06T04:17:59.562Z,87.37
2016-12-06T04:18:27.696Z,87.37
2016-12-06T04:18:56.017Z,87.47
2016-12-06T04:19:24.206Z,87.37
2016-12-06T04:19:52.386Z,87.37
2016-12-06T04:20:20.392Z,87.37
2016-12-06T04:20:48.703Z,87.37
2016-12-06T04:21:16.905Z,87.56
2016-12-06T04:21:45.132Z,87.37
2016-12-06T04:22:13.494Z,87.47
2016-12-06T04:22:41.740Z,87.85
2016-12-06T04:23:09.977Z,87.62
2016-12-06T04:23:38.290Z,87.76
2016-12-06T04:24:06.548Z,87.66
2016-12-06T04:24:34.683Z,87.95
2016-12-06T04:25:02.884Z,88.09
2016-12-06T04:25:30.954Z,87.95
2016-12-06T04:25:59.274Z,87.95
2016-12-06T04:26:27.384Z,88.13
2016-12-06T04:26:55.497Z,88.13
2016-12-06T04:27:23.684Z,88.04
2016-12-06T04:27:51.674Z,88
2016-12-06T04:28:19.782Z,88
2016-12-06T04:28:48.014Z,88.43
2016-12-06T04:29:16.190Z,88.04
2016-12-06T04:29:44.431Z,87.85
2016-12-06T04:30:12.650Z,88.57
2016-12-06T04:30:40.766Z,88.38
2016-12-06T04:31:09.116Z,88.62
2016-12-06T04:31:37.358Z,88.43
2016-12-06T04:32:05.557Z,88.43
2016-12-06T04:32:33.660Z,88.76
2016-12-06T04:33:01.893Z,88.81
2016-12-06T04:33:30.118Z,88.76
2016-12-06T04:33:58.292Z,88.62
2016-12-06T04:34:26.450Z,88.71
2016-12-06T04:34:54.655Z,88.86
2016-12-06T04:35:22.795Z,88.38
2016-12-06T04:35:51.012Z,88.76
2016-12-06T04:36:19.335Z,88.29
2016-12-06T04:36:47.547Z,88.57
2016-12-06T04:37:15.822Z,88.57
2016-12-06T04:37:44.139Z,88.67
2016-12-06T04:38:12.383Z,88.67
2016-12-06T04:38:40.687Z,88.38
2016-12-06T04:39:08.728Z,89.15
2016-12-06T04:39:36.952Z,89.34
2016-12-06T04:40:05.212Z,89.15
2016-12-06T04:40:33.304Z,88.86
2016-12-06T04:41:01.522Z,89.15
2016-12-06T04:41:29.746Z,89.34
2016-12-06T04:41:58.059Z,89.24
2016-12-06T04:42:26.316Z,88.86
2016-12-06T04:42:54.624Z,89.43
2016-12-06T04:43:22.898Z,88.86
2016-12-06T04:43:51.129Z,89.43
2016-12-06T04:44:19.337Z,88.76
2016-12-06T04:44:47.648Z,88.86
2016-12-06T04:45:15.662Z,88.95
2016-12-06T04:45:43.883Z,89.24
2016-12-06T04:46:12.197Z,89.05
2016-12-06T04:46:40.530Z,88.86
2016-12-06T04:47:08.469Z,88.95
2016-12-06T04:47:36.757Z,89.34
2016-12-06T04:48:05.096Z,89.05
2016-12-06T04:48:33.226Z,89.81
2016-12-06T04:49:01.282Z,89.81
2016-12-06T04:49:29.341Z,89.34
2016-12-06T04:49:57.562Z,89.81
2016-12-06T04:50:25.730Z,90.2
2016-12-06T04:50:53.836Z,90.2
2016-12-06T04:51:22.091Z,90.1
2016-12-06T04:51:50.217Z,90.2
2016-12-06T04:52:18.506Z,90.1
2016-12-06T04:52:46.814Z,89.62
2016-12-06T04:53:15.054Z,89.81
2016-12-06T04:53:43.335Z,89.72
2016-12-06T04:54:11.541Z,89.72
2016-12-06T04:54:39.616Z,89.72
2016-12-06T04:55:07.732Z,89.53
2016-12-06T04:55:35.995Z,89.72
2016-12-06T04:56:04.279Z,90.1
2016-12-06T04:56:32.460Z,90.1
2016-12-06T04:57:00.750Z,89.81
2016-12-06T04:57:28.914Z,90.1
2016-12-06T04:57:57.113Z,90.2
2016-12-06T04:58:25.339Z,90.01
2016-12-06T04:58:53.561Z,90.01
2016-12-06T04:59:21.867Z,90.2
2016-12-06T04:59:49.883Z,90.2
2016-12-06T05:00:17.910Z,90.39
2016-12-06T05:00:46.068Z,90.48
2016-12-06T05:01:14.191Z,90.58
2016-12-06T05:01:42.255Z,90.58
2016-12-06T05:02:10.459Z,90.01
2016-12-06T05:02:38.699Z,90.39
2016-12-06T05:03:07.026Z,90.39
2016-12-06T05:03:35.340Z,90.1
2016-12-06T05:04:03.675Z,90.48
2016-12-06T05:04:31.894Z,90.48
2016-12-06T05:05:00.085Z,90.58
2016-12-06T05:05:28.270Z,90.2
2016-12-06T05:05:56.514Z,90.58
2016-12-06T05:06:24.755Z,90.39
2016-12-06T05:06:52.975Z,90.2
2016-12-06T05:07:21.188Z,90.67
2016-12-06T05:07:49.332Z,90.48
2016-12-06T05:08:17.550Z,90.39
2016-12-06T05:08:45.712Z,90.3
2016-12-06T05:09:13.723Z,90.48
2016-12-06T05:09:41.785Z,90.87
2016-12-06T05:10:09.722Z,90.39
2016-12-06T05:11:03.909Z,90.67
2016-12-06T05:11:32.160Z,90.2
2016-12-06T05:12:49.273Z,90.77
2016-12-06T05:13:17.505Z,90.58
2016-12-06T05:13:45.769Z,90.39
2016-12-06T05:14:13.932Z,90.58
2016-12-06T05:14:42.242Z,90.67
2016-12-06T05:15:10.460Z,90.67
2016-12-06T05:15:38.785Z,90.58
2016-12-06T05:16:07.085Z,90.67
2016-12-06T05:16:35.168Z,90.3
2016-12-06T05:17:03.418Z,90.3
2016-12-06T05:17:31.558Z,90.58
2016-12-06T05:17:59.924Z,90.39
2016-12-06T05:18:28.092Z,90.48
2016-12-06T05:18:56.239Z,90.39
2016-12-06T05:19:24.409Z,90.3
2016-12-06T05:19:52.513Z,90.39
2016-12-06T05:20:20.788Z,90.39
2016-12-06T05:20:48.902Z,90.3
2016-12-06T05:21:17.036Z,90.3
2016-12-06T05:21:45.343Z,90.48
2016-12-06T05:22:13.427Z,90.87
2016-12-06T05:22:41.774Z,90.58
2016-12-06T05:23:10.087Z,90.58
2016-12-06T05:23:38.298Z,90.48
2016-12-06T05:24:06.619Z,90.96
2016-12-06T05:24:34.734Z,90.73
2016-12-06T05:25:02.892Z,90.34
2016-12-06T05:25:31.024Z,90.34
2016-12-06T05:25:59.264Z,90.44
2016-12-06T05:26:27.409Z,90.25
2016-12-06T05:26:55.612Z,90.53
2016-12-06T05:27:23.851Z,90.92
2016-12-06T05:27:51.993Z,90.92
2016-12-06T05:28:20.043Z,91.02
2016-12-06T05:28:48.388Z,90.82
2016-12-06T05:30:05.153Z,91.02
2016-12-06T05:30:33.353Z,90.92
2016-12-06T05:31:01.603Z,90.25
2016-12-06T05:31:29.785Z,91.02
2016-12-06T05:31:58.143Z,91.02
2016-12-06T05:32:26.192Z,91.11
2016-12-06T05:32:54.544Z,90.82
2016-12-06T05:33:22.773Z,91.11
2016-12-06T05:33:50.919Z,90.92
2016-12-06T05:34:19.191Z,91.02
2016-12-06T05:34:47.407Z,91.3
2016-12-06T05:35:52.883Z,91.11
2016-12-06T05:36:21.109Z,91.49
2016-12-06T05:36:49.446Z,91.59
2016-12-06T05:37:17.742Z,91.59
2016-12-06T05:37:45.852Z,91.78
2016-12-06T05:38:14.087Z,91.78
2016-12-06T05:38:42.299Z,91.78
2016-12-06T05:39:10.474Z,91.78
2016-12-06T05:39:38.664Z,91.97
2016-12-06T05:40:06.944Z,92.25
2016-12-06T05:40:35.263Z,92.45
2016-12-06T05:41:03.559Z,91.78
2016-12-06T05:41:31.751Z,91.3
2016-12-06T05:41:59.969Z,91.97
2016-12-06T05:42:28.273Z,91.88
2016-12-06T05:42:56.571Z,91.68
2016-12-06T05:43:24.750Z,91.78
2016-12-06T05:43:52.893Z,92.16
2016-12-06T05:44:21.224Z,91.97
2016-12-06T05:44:49.304Z,91.68
2016-12-06T05:45:17.547Z,91.59
2016-12-06T05:45:45.675Z,92.35
2016-12-06T05:46:14.002Z,92.07
2016-12-06T05:47:19.316Z,91.49
2016-12-06T05:47:47.499Z,91.11
2016-12-06T05:48:15.783Z,91.88
2016-12-06T05:48:44.088Z,91.78
2016-12-06T05:49:12.234Z,91.49
2016-12-06T05:49:40.320Z,91.3
2016-12-06T05:50:08.458Z,91.78
2016-12-06T05:50:36.612Z,91.88
2016-12-06T05:51:04.880Z,91.88
2016-12-06T05:51:33.011Z,91.68
2016-12-06T05:52:01.257Z,91.97
2016-12-06T05:52:29.470Z,91.78
2016-12-06T05:52:57.696Z,91.78
2016-12-06T05:53:25.872Z,91.49
2016-12-06T05:53:54.183Z,91.02
2016-12-06T05:54:22.428Z,91.39
2016-12-06T05:54:50.668Z,91.88
2016-12-06T05:55:18.997Z,91.78
2016-12-06T05:55:47.302Z,92.16
2016-12-06T05:56:52.779Z,92.25
2016-12-06T05:57:20.874Z,92.45
2016-12-06T05:58:26.635Z,91.68
2016-12-06T05:58:54.681Z,91.68
2016-12-06T05:59:22.988Z,91.68
2016-12-06T05:59:51.159Z,91.59
2016-12-06T06:00:19.431Z,91.2
2016-12-06T06:00:47.647Z,91.97
2016-12-06T06:01:15.810Z,92.25
2016-12-06T06:01:43.897Z,91.88
2016-12-06T06:02:11.966Z,91.88
2016-12-06T06:02:40.199Z,91.88
2016-12-06T06:03:08.369Z,91.68
2016-12-06T06:03:36.968Z,91.78
2016-12-06T06:04:05.178Z,91.59
2016-12-06T06:04:33.244Z,92.25
2016-12-06T06:05:01.603Z,91.97
2016-12-06T06:05:29.846Z,92.07
2016-12-06T06:05:58.107Z,92.07
2016-12-06T06:06:26.368Z,92.59
2016-12-06T06:06:54.593Z,92.64
2016-12-06T06:07:22.817Z,93.31
2016-12-06T06:07:51.021Z,93.21
2016-12-06T06:08:19.146Z,93.31
2016-12-06T06:08:47.354Z,92.54
2016-12-06T06:09:15.506Z,92.16
2016-12-06T06:09:43.630Z,92.16
2016-12-06T06:10:11.728Z,92.35
2016-12-06T06:10:39.988Z,92.83
2016-12-06T06:11:08.246Z,92.5
2016-12-06T06:11:36.475Z,92.69
2016-12-06T06:12:04.801Z,93.36
2016-12-06T06:12:32.787Z,93.12
2016-12-06T06:13:01.065Z,92.88
2016-12-06T06:13:29.331Z,93.12
2016-12-06T06:13:57.641Z,92.97
2016-12-06T06:14:25.916Z,92.83
2016-12-06T06:14:54.141Z,93.12
2016-12-06T06:15:22.459Z,93.12
2016-12-06T06:15:50.550Z,92.97
2016-12-06T06:16:18.900Z,93.4
2016-12-06T06:16:47.196Z,92.93